Time;durP1;ratioP1;P1;durP2;ratioP2;P2;SDS_P1;SDS_P2;PMS_P1;PMS_P2;Temp;Humidity;BMP_temperature;BMP_pressure;BME280_temperature;BME280_humidity;BME280_pressure;Samples;Min_cycle;Max_cycle;Signal;HPM_P1;HPM_P2
2022/05/09 00:00:29;;;;;;;11.10;5.07;;;;;;;9.21;73.02;102662.38;4989138;28;20057;-84
2022/05/09 00:02:54;;;;;;;12.65;5.50;;;;;;;9.17;73.01;102662.53;5002396;28;20037;-87
2022/05/09 00:05:24;;;;;;;15.05;5.32;;;;;;;9.17;72.80;102660.75;5006382;28;20030;-87
2022/05/09 00:07:49;;;;;;;14.82;5.03;;;;;;;9.19;72.04;102653.69;4990433;28;20030;-87
2022/05/09 00:10:17;;;;;;;15.88;5.05;;;;;;;9.19;71.36;102652.81;5008098;28;20097;-87
2022/05/09 00:12:43;;;;;;;15.43;5.10;;;;;;;9.19;72.30;102653.69;5007781;28;20037;-88
2022/05/09 00:15:09;;;;;;;9.88;4.50;;;;;;;9.19;71.09;102656.31;5009238;28;20103;-87
2022/05/09 00:17:35;;;;;;;12.23;5.18;;;;;;;9.14;72.19;102647.75;4994636;28;20036;-84
2022/05/09 00:20:00;;;;;;;11.98;4.68;;;;;;;9.16;71.19;102648.53;5012027;28;20426;-84
2022/05/09 00:22:25;;;;;;;11.27;4.63;;;;;;;9.16;71.94;102645.91;4993198;28;20070;-84
2022/05/09 00:24:51;;;;;;;11.73;4.75;;;;;;;9.13;71.83;102648.66;4995566;28;20033;-87
2022/05/09 00:27:16;;;;;;;14.93;4.72;;;;;;;9.13;71.09;102646.03;4993964;28;20087;-84
2022/05/09 00:29:42;;;;;;;14.52;4.93;;;;;;;9.13;71.60;102642.56;4995653;28;20053;-87
2022/05/09 00:32:07;;;;;;;14.43;4.57;;;;;;;9.09;71.84;102649.72;4995335;28;20075;-88
2022/05/09 00:34:37;;;;;;;13.13;5.03;;;;;;;9.05;72.22;102645.50;4994531;28;20049;-84
2022/05/09 00:37:03;;;;;;;11.25;4.35;;;;;;;9.02;72.16;102642.97;4994550;28;20033;-84
2022/05/09 00:39:29;;;;;;;13.07;5.05;;;;;;;8.97;72.54;102639.69;4993664;28;20124;-87
2022/05/09 00:41:54;;;;;;;12.73;4.90;;;;;;;8.88;72.56;102642.66;4993562;28;20105;-88
2022/05/09 00:44:21;;;;;;;13.02;5.15;;;;;;;8.85;72.97;102638.41;4991671;28;20026;-84
2022/05/09 00:46:50;;;;;;;13.02;4.68;;;;;;;8.75;73.56;102643.09;4987570;28;20027;-84
2022/05/09 00:49:33;;;;;;;15.43;5.00;;;;;;;8.75;72.49;102648.34;4974210;28;20022;-84
2022/05/09 00:52:16;;;;;;;13.07;4.93;;;;;;;8.72;73.31;102642.38;4992128;28;20038;-84
2022/05/09 00:54:52;;;;;;;12.43;5.32;;;;;;;8.61;73.70;102640.16;4991465;28;20447;-84
2022/05/09 00:57:23;;;;;;;15.73;5.35;;;;;;;8.57;74.08;102635.06;4996362;28;20462;-87
2022/05/09 00:59:53;;;;;;;16.35;5.30;;;;;;;8.52;74.13;102635.25;4993186;28;20026;-87
2022/05/09 01:02:22;;;;;;;10.75;5.10;;;;;;;8.48;74.83;102633.66;4981146;28;20390;-87
2022/05/09 01:04:52;;;;;;;12.27;5.13;;;;;;;8.44;74.64;102637.31;4992249;28;20116;-84
2022/05/09 01:07:18;;;;;;;11.70;5.10;;;;;;;8.39;74.68;102633.97;4992261;28;20022;-84
2022/05/09 01:09:43;;;;;;;15.30;5.68;;;;;;;8.33;75.07;102628.91;4973677;28;20018;-84
2022/05/09 01:12:12;;;;;;;11.32;4.80;;;;;;;8.29;75.49;102627.31;4975059;28;20030;-87
2022/05/09 01:14:39;;;;;;;11.05;5.15;;;;;;;8.27;75.30;102623.88;4996484;28;20034;-84
2022/05/09 01:17:05;;;;;;;13.23;5.15;;;;;;;8.22;75.70;102621.44;4990064;28;20497;-83
2022/05/09 01:19:36;;;;;;;9.00;5.05;;;;;;;8.17;75.46;102613.75;4992379;28;20031;-87
2022/05/09 01:22:04;;;;;;;11.48;5.20;;;;;;;8.14;76.01;102618.22;5006771;28;20030;-84
2022/05/09 01:24:30;;;;;;;13.82;5.40;;;;;;;8.11;76.09;102624.44;4993785;28;20620;-87
2022/05/09 01:26:56;;;;;;;11.77;4.93;;;;;;;8.08;76.02;102624.56;5011129;28;20108;-87
2022/05/09 01:29:37;;;;;;;12.75;5.20;;;;;;;8.04;75.17;102617.72;5010515;28;20030;-84
2022/05/09 01:32:07;;;;;;;9.55;5.28;;;;;;;7.96;76.14;102624.09;5004749;28;20386;-87
2022/05/09 01:34:36;;;;;;;14.27;4.90;;;;;;;7.94;76.42;102626.78;4992323;28;20038;-87
2022/05/09 01:37:05;;;;;;;15.18;5.00;;;;;;;7.87;76.50;102620.03;4973894;28;20026;-86
2022/05/09 01:39:32;;;;;;;12.93;5.43;;;;;;;7.84;76.45;102615.75;4992582;28;20038;-87
2022/05/09 01:42:02;;;;;;;12.32;5.32;;;;;;;7.78;76.76;102615.13;4975079;28;20057;-87
2022/05/09 01:44:28;;;;;;;12.52;5.32;;;;;;;7.74;76.72;102605.66;5002406;28;20038;-87
2022/05/09 01:49:57;;;;;;;;;;;;;;;7.80;74.05;102618.53;4969266;28;20049;-87
2022/05/09 01:52:22;;;;;;;13.02;5.05;;;;;;;7.66;77.02;102616.41;4940315;29;19915;-86
2022/05/09 01:54:53;;;;;;;12.98;5.20;;;;;;;7.64;77.01;102614.75;4969094;28;20041;-86
2022/05/09 01:57:19;;;;;;;13.48;5.47;;;;;;;7.57;76.91;102611.44;4990965;28;20054;-82
2022/05/09 01:59:44;;;;;;;14.07;5.28;;;;;;;7.52;77.94;102614.22;4993706;28;20076;-86
2022/05/09 02:02:13;;;;;;;8.77;4.97;;;;;;;7.49;77.48;102614.31;5000912;28;20030;-83
2022/05/09 02:08:02;;;;;;;10.68;5.05;;;;;;;7.45;78.27;102620.56;5071421;23;20109;-77
2022/05/09 02:10:27;;;;;;;12.82;5.13;;;;;;;7.40;78.07;102613.75;4967081;28;20468;-78
2022/05/09 02:12:53;;;;;;;14.27;5.55;;;;;;;7.33;77.93;102612.25;4971593;28;20149;-78
2022/05/09 02:15:19;;;;;;;14.40;5.82;;;;;;;7.33;77.85;102613.09;4989776;28;20038;-78
2022/05/09 02:17:47;;;;;;;13.52;5.70;;;;;;;7.29;78.22;102610.63;4991060;28;20498;-78
2022/05/09 02:20:14;;;;;;;12.15;5.70;;;;;;;7.24;78.68;102608.16;4985947;28;20044;-78
2022/05/09 02:22:39;;;;;;;10.18;5.45;;;;;;;7.22;78.16;102609.97;4971563;28;20030;-78
2022/05/09 02:25:26;;;;;;;13.30;5.47;;;;;;;7.16;78.64;102597.06;4987218;28;20478;-78
2022/05/09 02:27:51;;;;;;;11.00;5.78;;;;;;;7.13;78.75;102605.00;4975343;28;20113;-78
2022/05/09 02:30:18;;;;;;;11.20;5.22;;;;;;;7.10;78.74;102602.50;4989887;28;20111;-78
2022/05/09 02:32:43;;;;;;;13.15;5.65;;;;;;;7.05;79.14;102600.03;4989893;28;20017;-78
2022/05/09 02:35:09;;;;;;;12.68;5.13;;;;;;;7.03;79.16;102611.44;4989061;28;20395;-78
2022/05/09 02:37:35;;;;;;;12.95;5.70;;;;;;;6.96;79.45;102597.69;4988397;28;20101;-78
2022/05/09 02:40:01;;;;;;;13.27;5.75;;;;;;;6.96;79.37;102607.31;4988865;28;20031;-78
2022/05/09 02:42:26;;;;;;;13.05;5.88;;;;;;;6.93;79.88;102596.94;4990983;28;20037;-79
2022/05/09 02:44:54;;;;;;;12.63;5.65;;;;;;;6.90;79.81;102603.97;4973580;28;20434;-78
2022/05/09 02:47:20;;;;;;;11.77;6.00;;;;;;;6.90;79.98;102609.22;4989578;28;20108;-78
2022/05/09 02:49:46;;;;;;;14.88;6.15;;;;;;;6.84;79.76;102593.69;4990186;28;20033;-77
2022/05/09 02:52:12;;;;;;;15.23;5.60;;;;;;;6.84;80.13;102606.78;4990460;28;20026;-78
2022/05/09 02:54:37;;;;;;;12.65;5.75;;;;;;;6.79;80.77;102600.81;4962030;28;20472;-79
2022/05/09 02:57:03;;;;;;;10.75;6.28;;;;;;;6.76;80.30;102605.28;4971276;28;20045;-78
2022/05/09 02:59:28;;;;;;;12.23;6.03;;;;;;;6.72;80.55;102604.50;4968045;28;20177;-77
2022/05/09 03:01:53;;;;;;;12.10;5.72;;;;;;;6.72;81.03;102599.28;4972116;28;20121;-78
2022/05/09 03:07:07;;;;;;;11.10;6.00;;;;;;;6.64;81.24;102596.03;4988061;28;20195;-78
2022/05/09 03:09:33;;;;;;;18.35;6.38;;;;;;;6.62;81.30;102597.84;4987251;28;20765;-78
2022/05/09 03:11:58;;;;;;;11.20;6.03;;;;;;;6.58;80.98;102591.84;4989838;28;20019;-77
2022/05/09 03:14:23;;;;;;;16.15;5.75;;;;;;;6.60;80.62;102597.03;4989809;28;20467;-78
2022/05/09 03:16:49;;;;;;;14.68;6.50;;;;;;;6.57;80.84;102589.28;4988206;28;20394;-78
2022/05/09 03:19:16;;;;;;;15.00;6.00;;;;;;;6.53;81.12;102598.13;4972171;28;20425;-78
2022/05/09 03:21:41;;;;;;;11.32;6.15;;;;;;;6.51;80.76;102599.94;4989776;28;20105;-77
2022/05/09 03:24:07;;;;;;;21.15;6.47;;;;;;;6.46;81.16;102592.22;4988078;28;20108;-78
2022/05/09 03:26:33;;;;;;;15.95;5.95;;;;;;;6.46;80.82;102596.59;4972864;28;20049;-78
2022/05/09 03:28:59;;;;;;;15.98;6.70;;;;;;;6.40;81.04;102581.06;4986453;28;20026;-78
2022/05/09 03:31:24;;;;;;;12.65;6.63;;;;;;;6.36;81.31;102579.44;4983029;28;20116;-78
2022/05/09 03:33:49;;;;;;;14.35;5.93;;;;;;;6.36;81.03;102587.28;4988142;28;20041;-78
2022/05/09 03:36:15;;;;;;;16.77;6.40;;;;;;;6.34;81.19;102581.22;4989150;28;20106;-78
2022/05/09 03:38:41;;;;;;;12.52;6.55;;;;;;;6.29;81.47;102579.59;4989611;28;20034;-78
2022/05/09 03:41:07;;;;;;;10.23;6.28;;;;;;;6.31;82.07;102581.31;4971562;28;20081;-78
2022/05/09 03:43:32;;;;;;;12.90;6.68;;;;;;;6.31;81.47;102581.31;4988327;28;20069;-78
2022/05/09 03:45:58;;;;;;;14.20;6.38;;;;;;;6.26;81.53;102576.22;4988681;28;20029;-78
2022/05/09 03:48:24;;;;;;;14.25;5.97;;;;;;;6.24;81.60;102578.88;4987326;28;20113;-78
2022/05/09 03:50:50;;;;;;;13.00;6.10;;;;;;;6.21;81.25;102573.75;4989708;28;20411;-78
2022/05/09 03:53:15;;;;;;;13.95;6.45;;;;;;;6.19;82.34;102583.38;4992988;28;20088;-78
2022/05/09 03:55:41;;;;;;;14.05;6.32;;;;;;;6.21;81.95;102581.59;4976260;28;20026;-78
2022/05/09 03:58:07;;;;;;;13.55;6.47;;;;;;;6.18;82.54;102581.66;4992247;28;20708;-78
2022/05/09 04:00:35;;;;;;;14.45;6.22;;;;;;;6.16;82.86;102586.09;4991670;28;20038;-78
2022/05/09 04:03:01;;;;;;;14.65;6.25;;;;;;;6.12;83.21;102581.84;4992687;28;20485;-78
2022/05/09 04:05:30;;;;;;;14.20;6.20;;;;;;;6.14;83.12;102581.81;4990072;28;20125;-78
2022/05/09 04:07:58;;;;;;;16.35;7.05;;;;;;;6.15;83.30;102576.53;4985281;28;20046;-78
2022/05/09 04:10:28;;;;;;;16.38;6.95;;;;;;;6.14;83.02;102579.19;4970380;28;20043;-78
2022/05/09 04:12:53;;;;;;;10.35;6.15;;;;;;;6.15;83.45;102584.38;4971141;28;20057;-78
2022/05/09 04:18:08;;;;;;;16.50;6.20;;;;;;;6.12;82.88;102581.84;4972681;28;20089;-78
2022/05/09 04:20:34;;;;;;;12.95;6.60;;;;;;;6.11;83.79;102580.13;4971817;28;20380;-78
2022/05/09 04:23:00;;;;;;;16.77;7.03;;;;;;;6.12;83.41;102581.84;4972446;28;20069;-78
2022/05/09 04:25:31;;;;;;;11.80;6.30;;;;;;;6.13;83.18;102578.34;4969767;28;20525;-78
2022/05/09 04:27:58;;;;;;;11.80;6.25;;;;;;;6.15;83.80;102581.75;4987238;28;20025;-78
2022/05/09 04:30:25;;;;;;;17.58;7.00;;;;;;;6.15;83.66;102573.91;4972593;28;20380;-78
2022/05/09 04:32:50;;;;;;;13.75;7.28;;;;;;;6.17;84.53;102571.25;4971823;28;20561;-77
2022/05/09 04:35:19;;;;;;;15.00;7.57;;;;;;;6.20;84.34;102579.88;4972165;28;20114;-78
2022/05/09 04:37:47;;;;;;;20.52;7.88;;;;;;;6.25;84.40;102571.91;4972635;28;20027;-78
2022/05/09 04:40:19;;;;;;;17.45;8.07;;;;;;;6.34;84.37;102566.41;4972225;28;20035;-78
2022/05/09 04:42:44;;;;;;;20.30;7.63;;;;;;;6.44;84.40;102572.25;4969629;28;20045;-78
2022/05/09 04:45:13;;;;;;;16.48;8.05;;;;;;;6.50;84.11;102570.31;4971997;28;20022;-78
2022/05/09 04:47:39;;;;;;;18.27;7.47;;;;;;;6.58;83.87;102565.69;4971254;28;20395;-77
2022/05/09 04:50:06;;;;;;;19.05;8.00;;;;;;;6.64;83.75;102569.03;4972270;28;20026;-78
2022/05/09 04:52:31;;;;;;;17.17;7.95;;;;;;;6.68;83.52;102571.50;4955662;28;20030;-78
2022/05/09 04:54:57;;;;;;;15.38;7.82;;;;;;;6.75;83.39;102567.78;4970863;28;20045;-78
2022/05/09 04:57:23;;;;;;;16.92;7.95;;;;;;;6.82;83.17;102558.88;4972480;28;20034;-78
2022/05/09 04:59:48;;;;;;;18.80;8.07;;;;;;;6.90;82.90;102567.34;4972043;28;20050;-78
2022/05/09 05:02:14;;;;;;;18.80;7.20;;;;;;;6.97;82.79;102556.69;4970040;28;20030;-78
2022/05/09 05:04:40;;;;;;;23.27;8.27;;;;;;;7.06;82.86;102564.25;4971828;28;20471;-78
2022/05/09 05:07:05;;;;;;;17.95;7.72;;;;;;;7.14;82.43;102554.38;4972541;28;20030;-78
2022/05/09 05:09:31;;;;;;;19.48;7.65;;;;;;;7.20;81.83;102538.47;4975770;28;20098;-78
2022/05/09 05:11:56;;;;;;;20.20;8.02;;;;;;;7.31;81.60;102546.00;4969812;28;20030;-77
2022/05/09 05:14:23;;;;;;;22.48;7.97;;;;;;;7.37;81.31;102554.50;4954702;28;20038;-77
2022/05/09 05:17:00;;;;;;;16.85;8.38;;;;;;;7.45;80.96;102555.09;4990752;28;20390;-77
2022/05/09 05:19:31;;;;;;;20.95;7.85;;;;;;;7.51;80.68;102554.88;4991435;28;20022;-77
2022/05/09 05:21:59;;;;;;;19.05;8.35;;;;;;;7.64;80.76;102562.34;4986484;28;20251;-77
2022/05/09 05:24:25;;;;;;;16.70;7.55;;;;;;;7.69;79.07;102568.28;4971455;28;20553;-77
2022/05/09 05:26:52;;;;;;;16.40;7.65;;;;;;;7.76;79.17;102564.53;4972162;28;20027;-77
2022/05/09 05:29:18;;;;;;;20.00;7.90;;;;;;;7.83;79.00;102558.16;4968538;28;20490;-77
2022/05/09 05:31:44;;;;;;;23.13;8.48;;;;;;;7.87;78.62;102559.75;4970732;28;20027;-77
2022/05/09 05:34:09;;;;;;;18.90;8.52;;;;;;;7.97;79.04;102563.75;4977809;28;20356;-77
2022/05/09 05:36:35;;;;;;;15.30;8.10;;;;;;;8.08;78.05;102566.88;4990780;28;20416;-78
2022/05/09 05:39:03;;;;;;;18.23;7.72;;;;;;;8.16;78.03;102564.84;4986895;28;20019;-79
2022/05/09 05:41:28;;;;;;;20.80;7.60;;;;;;;8.24;77.52;102564.56;4972259;28;20038;-77
2022/05/09 05:43:55;;;;;;;17.27;7.95;;;;;;;8.33;77.66;102555.47;4965114;28;20489;-78
2022/05/09 05:46:20;;;;;;;16.67;7.88;;;;;;;8.44;76.71;102561.25;4970347;28;20034;-78
2022/05/09 05:48:45;;;;;;;17.17;8.20;;;;;;;8.55;76.48;102560.81;4974928;28;20451;-78
2022/05/09 05:51:14;;;;;;;15.32;7.35;;;;;;;8.63;75.88;102564.84;4971055;28;20034;-78
2022/05/09 05:53:40;;;;;;;18.80;7.57;;;;;;;8.76;75.73;102555.59;4970838;28;20026;-78
2022/05/09 05:56:06;;;;;;;19.95;7.85;;;;;;;8.83;74.60;102556.22;4954996;28;20129;-78
2022/05/09 05:58:31;;;;;;;14.32;7.13;;;;;;;8.93;74.68;102561.97;4985303;28;20117;-77
2022/05/09 06:00:57;;;;;;;17.65;7.35;;;;;;;9.04;74.61;102565.00;4983903;28;20094;-78
2022/05/09 06:03:22;;;;;;;19.52;7.75;;;;;;;9.13;74.69;102566.41;4969372;28;20192;-78
2022/05/09 06:05:52;;;;;;;18.58;7.38;;;;;;;9.21;73.79;102562.59;4982811;28;20030;-78
2022/05/09 06:08:18;;;;;;;21.25;8.05;;;;;;;9.33;73.08;102566.47;4984454;28;20506;-78
2022/05/09 06:10:43;;;;;;;18.48;7.30;;;;;;;9.43;72.44;102554.66;4972061;28;20039;-76
2022/05/09 06:13:10;;;;;;;27.10;7.93;;;;;;;9.50;72.17;102556.09;4979629;28;20034;-78
2022/05/09 06:15:36;;;;;;;19.17;7.47;;;;;;;9.58;72.07;102555.78;4980773;28;20065;-77
2022/05/09 06:18:14;;;;;;;17.30;7.90;;;;;;;9.69;72.15;102553.56;4971550;28;20113;-80
2022/05/09 06:20:43;;;;;;;18.25;6.95;;;;;;;9.78;71.76;102557.56;4989618;28;20049;-78
2022/05/09 06:23:12;;;;;;;15.43;7.47;;;;;;;9.87;71.53;102554.53;4971923;28;20034;-78
2022/05/09 06:25:37;;;;;;;20.63;7.75;;;;;;;10.00;71.24;102559.19;4972466;28;20054;-79
2022/05/09 06:28:05;;;;;;;21.02;8.00;;;;;;;10.12;69.83;102559.56;4989969;28;20057;-79
2022/05/09 06:30:31;;;;;;;17.90;7.68;;;;;;;10.25;69.67;102563.38;4989937;28;20031;-79
2022/05/09 06:32:57;;;;;;;16.65;7.72;;;;;;;10.35;68.66;102552.38;4954944;28;20033;-78
2022/05/09 06:35:24;;;;;;;18.83;8.25;;;;;;;10.50;67.70;102564.00;4958677;28;20133;-78
2022/05/09 06:38:05;;;;;;;16.77;7.75;;;;;;;10.65;67.54;102555.38;4987168;28;20487;-79
2022/05/09 06:40:32;;;;;;;24.80;8.07;;;;;;;10.83;67.32;102550.19;4967451;28;20121;-76
2022/05/09 06:42:58;;;;;;;19.73;7.65;;;;;;;11.00;66.56;102552.84;4983757;28;20049;-77
2022/05/09 06:45:25;;;;;;;19.60;8.02;;;;;;;11.13;65.85;102548.69;4958405;28;20031;-77
2022/05/09 06:47:53;;;;;;;16.80;7.68;;;;;;;11.24;66.16;102541.13;4961131;28;20029;-77
2022/05/09 06:50:26;;;;;;;16.17;7.25;;;;;;;11.43;64.78;102550.72;4941890;28;20034;-78
2022/05/09 06:52:52;;;;;;;21.88;7.82;;;;;;;11.59;64.80;102536.69;4963860;28;20466;-78
2022/05/09 06:55:17;;;;;;;16.15;7.03;;;;;;;11.81;63.42;102544.38;4950122;28;20165;-77
2022/05/09 06:57:44;;;;;;;21.23;7.80;;;;;;;12.11;62.63;102552.50;4949376;29;20031;-77
2022/05/09 07:00:14;;;;;;;19.00;7.28;;;;;;;12.51;62.90;102547.69;4932953;28;20027;-77
2022/05/09 07:02:40;;;;;;;15.98;7.22;;;;;;;12.84;60.24;102544.97;4941753;28;20038;-77
2022/05/09 07:05:15;;;;;;;17.55;6.85;;;;;;;13.11;60.63;102543.38;4970590;28;20299;-77
2022/05/09 07:07:41;;;;;;;14.00;6.97;;;;;;;13.50;59.62;102539.41;4974384;28;20054;-78
2022/05/09 07:10:07;;;;;;;16.77;7.20;;;;;;;13.74;58.05;102539.75;4989399;28;20022;-78
2022/05/09 07:12:46;;;;;;;16.35;6.75;;;;;;;13.80;57.44;102531.44;4990420;28;20068;-78
2022/05/09 07:15:16;;;;;;;17.50;7.20;;;;;;;14.00;57.70;102533.69;4981034;28;20019;-78
2022/05/09 07:17:45;;;;;;;16.45;6.55;;;;;;;14.31;57.21;102524.72;4989055;28;20092;-78
2022/05/09 07:20:12;;;;;;;17.83;6.97;;;;;;;14.64;56.75;102519.09;4989239;28;20088;-78
2022/05/09 07:22:38;;;;;;;19.90;6.85;;;;;;;14.99;54.29;102524.78;4971667;28;20093;-78
2022/05/09 07:25:08;;;;;;;14.50;6.82;;;;;;;15.32;54.25;102526.13;4988987;28;20538;-78
2022/05/09 07:27:33;;;;;;;14.60;6.70;;;;;;;15.48;52.80;102524.13;4976726;28;20121;-78
2022/05/09 07:29:59;;;;;;;12.45;6.53;;;;;;;15.68;52.52;102528.13;4992894;28;20634;-78
2022/05/09 07:32:24;;;;;;;14.43;6.63;;;;;;;15.90;52.43;102524.84;4976687;28;20041;-78
2022/05/09 07:34:51;;;;;;;15.77;6.88;;;;;;;16.28;51.01;102524.78;4993624;28;20018;-78
2022/05/09 07:37:17;;;;;;;17.70;6.82;;;;;;;16.60;49.83;102533.97;4992638;28;20022;-79
2022/05/09 07:39:44;;;;;;;12.77;6.60;;;;;;;16.82;49.96;102517.34;4985849;28;20053;-78
2022/05/09 07:42:11;;;;;;;18.35;7.13;;;;;;;17.10;48.76;102520.59;4995935;28;20021;-78
2022/05/09 07:44:37;;;;;;;19.30;7.00;;;;;;;17.41;48.13;102517.31;5011093;28;20022;-79
2022/05/09 07:47:05;;;;;;;16.60;6.75;;;;;;;17.77;47.82;102518.16;4990962;28;20419;-78
2022/05/09 07:49:34;;;;;;;14.55;6.70;;;;;;;18.07;46.95;102518.41;4959886;28;20446;-78
2022/05/09 07:52:00;;;;;;;18.02;6.20;;;;;;;18.39;45.00;102521.16;4992447;28;20517;-78
2022/05/09 07:54:25;;;;;;;13.95;6.35;;;;;;;18.63;45.25;102512.19;5007430;28;20054;-78
2022/05/09 07:56:50;;;;;;;12.55;5.88;;;;;;;18.69;45.92;102515.19;4974854;28;20061;-79
2022/05/09 07:59:17;;;;;;;14.52;6.43;;;;;;;18.93;43.74;102520.34;4991771;28;20038;-78
2022/05/09 08:01:43;;;;;;;13.57;6.18;;;;;;;19.17;43.82;102517.44;4993187;28;20034;-78
2022/05/09 08:04:08;;;;;;;15.68;6.70;;;;;;;19.45;44.58;102517.78;4956996;28;20134;-77
2022/05/09 08:06:33;;;;;;;15.63;6.10;;;;;;;19.65;41.95;102507.16;4990961;28;20391;-77
2022/05/09 08:09:01;;;;;;;14.52;5.82;;;;;;;20.03;41.01;102519.00;4992812;28;20130;-77
2022/05/09 08:11:30;;;;;;;13.05;5.40;;;;;;;20.22;40.46;102519.06;4974943;28;20023;-77
2022/05/09 08:13:56;;;;;;;16.83;5.90;;;;;;;20.47;40.26;102520.44;4993070;28;20039;-77
2022/05/09 08:16:24;;;;;;;14.18;5.28;;;;;;;20.47;40.29;102509.75;4958629;28;20018;-77
2022/05/09 08:18:49;;;;;;;12.23;5.10;;;;;;;20.75;39.04;102509.91;4973190;28;20023;-78
2022/05/09 08:21:14;;;;;;;11.77;5.03;;;;;;;20.94;39.53;102512.63;4956147;28;20088;-78
2022/05/09 08:23:40;;;;;;;11.13;5.72;;;;;;;21.28;38.82;102499.69;4973665;28;20102;-78
2022/05/09 08:26:05;;;;;;;12.63;5.78;;;;;;;21.38;37.96;102507.69;4967690;28;20181;-78
2022/05/09 08:28:31;;;;;;;12.13;5.28;;;;;;;21.57;38.58;102507.66;4941926;28;20030;-78
2022/05/09 08:30:58;;;;;;;11.63;4.97;;;;;;;21.85;38.70;102504.03;4954516;28;20057;-78
2022/05/09 08:33:26;;;;;;;11.27;5.28;;;;;;;22.15;37.66;102505.66;4985416;28;20141;-78
2022/05/09 08:35:53;;;;;;;13.48;5.40;;;;;;;21.98;37.50;102508.22;4990071;28;20034;-82
2022/05/09 08:38:19;;;;;;;13.27;5.07;;;;;;;22.33;38.19;102504.84;4973134;28;20089;-82
2022/05/09 08:41:11;;;;;;;14.02;5.30;;;;;;;22.64;38.97;102497.31;5008924;28;20087;-82
2022/05/09 08:44:10;;;;;;;12.48;4.75;;;;;;;22.79;37.50;102501.13;5008675;28;20034;-82
2022/05/09 08:46:54;;;;;;;9.98;4.10;;;;;;;22.85;35.97;102500.59;4988989;28;20475;-82
2022/05/09 08:49:42;;;;;;;11.70;4.47;;;;;;;22.89;34.21;102501.13;4955517;28;20030;-81
2022/05/09 08:52:15;;;;;;;13.88;4.15;;;;;;;23.10;36.01;102491.72;4972844;28;20050;-82
2022/05/09 08:54:42;;;;;;;15.82;4.97;;;;;;;23.40;35.65;102500.34;4972478;28;20027;-81
2022/05/09 08:57:16;;;;;;;13.98;4.80;;;;;;;23.60;35.48;102492.94;4973113;28;20034;-80
2022/05/09 08:59:55;;;;;;;11.82;4.72;;;;;;;23.70;35.55;102489.16;4954838;28;20039;-80
2022/05/09 09:02:29;;;;;;;10.38;4.30;;;;;;;23.49;34.49;102487.81;4982092;28;20430;-78
2022/05/09 09:04:56;;;;;;;12.55;4.30;;;;;;;23.52;34.16;102482.13;4984312;28;20041;-78
2022/05/09 09:07:45;;;;;;;11.63;4.25;;;;;;;23.41;33.65;102491.28;4963420;28;20105;-78
2022/05/09 09:10:43;;;;;;;13.50;4.53;;;;;;;23.56;36.73;102479.00;4934057;28;20050;-78
2022/05/09 09:13:29;;;;;;;11.98;4.72;;;;;;;23.61;35.40;102470.44;4959916;28;20030;-78
2022/05/09 09:16:16;;;;;;;10.02;4.55;;;;;;;23.78;35.50;102471.41;4980619;28;20430;-78
2022/05/09 09:19:00;;;;;;;9.85;4.85;;;;;;;23.85;34.76;102472.44;4969536;28;20025;-78
2022/05/09 09:21:56;;;;;;;10.52;4.93;;;;;;;23.96;35.19;102472.13;4970315;28;20026;-78
2022/05/09 09:24:24;;;;;;;10.25;4.80;;;;;;;23.78;34.28;102466.03;4953863;28;20483;-78
2022/05/09 09:27:02;;;;;;;14.48;4.95;;;;;;;23.60;33.35;102463.38;4972170;28;20030;-77
2022/05/09 09:29:44;;;;;;;9.23;5.03;;;;;;;23.63;35.11;102463.94;4971640;28;20392;-77
2022/05/09 09:32:15;;;;;;;12.35;5.03;;;;;;;23.60;34.42;102464.22;4975631;28;20485;-78
2022/05/09 09:34:55;;;;;;;11.93;5.05;;;;;;;23.62;35.17;102464.94;4970679;28;20081;-77
2022/05/09 09:37:26;;;;;;;15.23;5.10;;;;;;;23.58;34.22;102460.84;4982943;28;20449;-80
2022/05/09 09:39:51;;;;;;;9.48;4.50;;;;;;;23.67;34.24;102470.69;4987334;28;20025;-80
2022/05/09 09:42:17;;;;;;;10.48;5.00;;;;;;;23.65;34.20;102461.94;4970477;28;20031;-80
2022/05/09 09:44:47;;;;;;;11.55;4.97;;;;;;;23.72;34.30;102462.13;4954117;28;20093;-80
2022/05/09 09:47:18;;;;;;;8.27;5.20;;;;;;;23.63;34.43;102455.88;4971267;28;20029;-80
2022/05/09 09:49:45;;;;;;;10.70;4.97;;;;;;;23.35;33.47;102448.94;4952015;28;20066;-81
2022/05/09 09:52:19;;;;;;;13.90;5.13;;;;;;;23.75;34.83;102451.91;4971859;28;20418;-81
2022/05/09 09:54:50;;;;;;;9.77;5.03;;;;;;;23.79;34.02;102451.56;4971356;28;20045;-81
2022/05/09 09:57:23;;;;;;;10.32;4.80;;;;;;;23.71;33.46;102450.53;4970934;28;20026;-81
2022/05/09 09:59:48;;;;;;;10.68;4.93;;;;;;;24.02;33.10;102448.16;4954009;28;20061;-79
2022/05/09 10:02:16;;;;;;;13.07;4.85;;;;;;;24.16;33.80;102444.00;4971114;28;20054;-80
2022/05/09 10:04:43;;;;;;;13.05;4.30;;;;;;;24.22;33.90;102432.56;4984148;28;20036;-79
2022/05/09 10:07:28;;;;;;;10.82;4.65;;;;;;;24.45;33.94;102434.69;4973093;28;20410;-79
2022/05/09 10:10:15;;;;;;;7.72;3.72;;;;;;;24.11;33.73;102435.56;4984904;28;20039;-79
2022/05/09 10:12:51;;;;;;;11.02;3.83;;;;;;;23.98;32.66;102430.63;4979045;28;20490;-80
2022/05/09 10:15:25;;;;;;;6.25;2.80;;;;;;;24.19;31.99;102432.06;4982046;28;20035;-79
2022/05/09 10:17:51;;;;;;;8.55;3.58;;;;;;;24.34;31.72;102425.06;4986870;28;20092;-79
2022/05/09 10:20:22;;;;;;;9.10;3.30;;;;;;;24.51;32.16;102423.25;4982620;28;20466;-79
2022/05/09 10:25:35;;;;;;;8.25;3.35;;;;;;;24.91;30.75;102409.78;4980422;28;20082;-80
2022/05/09 10:28:12;;;;;;;7.43;3.70;;;;;;;24.71;31.21;102413.81;4953006;28;20049;-77
2022/05/09 10:30:43;;;;;;;10.38;3.70;;;;;;;24.65;30.81;102407.25;4958773;28;20030;-80
2022/05/09 10:33:31;;;;;;;8.63;3.35;;;;;;;24.63;32.48;102408.44;4974864;28;20070;-80
2022/05/09 10:36:02;;;;;;;9.20;3.53;;;;;;;24.51;30.04;102404.41;4969716;28;20018;-79
2022/05/09 10:38:44;;;;;;;9.35;3.28;;;;;;;24.29;31.10;102403.19;4987666;28;20015;-77
2022/05/09 10:41:21;;;;;;;9.13;3.58;;;;;;;24.15;31.71;102403.81;4984989;28;20035;-79
2022/05/09 10:44:18;;;;;;;8.13;3.40;;;;;;;24.22;33.48;102400.28;4987650;28;20541;-77
2022/05/09 10:46:51;;;;;;;10.32;3.35;;;;;;;24.35;31.08;102400.66;4968232;28;20053;-78
2022/05/09 10:49:36;;;;;;;;;;;;;;;24.74;33.15;102393.81;4971156;28;20586;-78
2022/05/09 10:52:10;;;;;;;13.20;4.10;;;;;;;24.57;32.11;102392.97;4987385;28;19913;-78
2022/05/09 10:54:45;;;;;;;8.38;3.95;;;;;;;24.46;32.65;102390.63;4985853;28;20018;-78
2022/05/09 10:57:31;;;;;;;10.10;4.05;;;;;;;24.59;33.22;102374.81;4983980;28;20026;-78
2022/05/09 11:00:23;;;;;;;10.10;4.00;;;;;;;24.75;33.47;102380.16;4956970;28;20027;-77
2022/05/09 11:03:16;;;;;;;10.10;3.63;;;;;;;24.94;33.15;102382.53;4952694;28;20049;-77
2022/05/09 11:06:19;;;;;;;9.00;3.90;;;;;;;25.02;33.69;102380.84;4984155;28;20413;-77
2022/05/09 11:09:10;;;;;;;9.73;3.60;;;;;;;25.02;31.62;102375.47;4970829;28;20679;-77
2022/05/09 11:12:05;;;;;;;11.38;4.18;;;;;;;24.83;32.28;102374.81;4970493;28;20029;-77
2022/05/09 11:14:45;;;;;;;9.18;4.18;;;;;;;24.52;31.34;102379.19;4986514;28;20031;-77
2022/05/09 11:17:22;;;;;;;10.85;4.13;;;;;;;24.35;31.49;102373.75;4970149;28;20034;-79
2022/05/09 11:20:09;;;;;;;11.95;4.38;;;;;;;24.27;31.73;102379.13;4970249;28;20102;-80
2022/05/09 11:23:00;;;;;;;8.18;4.20;;;;;;;24.57;32.88;102366.06;4969827;28;20034;-80
2022/05/09 11:25:32;;;;;;;10.82;4.20;;;;;;;24.49;31.66;102353.44;4987353;28;20026;-77
2022/05/09 11:28:04;;;;;;;9.93;3.55;;;;;;;24.64;32.89;102350.91;4987944;28;20389;-77
2022/05/09 11:30:40;;;;;;;9.15;4.13;;;;;;;24.62;32.24;102347.53;4988869;28;20065;-79
2022/05/09 11:33:41;;;;;;;12.30;4.35;;;;;;;24.75;33.14;102349.72;4987983;28;20030;-79
2022/05/09 11:36:44;;;;;;;10.27;4.07;;;;;;;24.74;33.38;102346.19;4952355;28;20026;-79
2022/05/09 11:39:33;;;;;;;12.75;4.78;;;;;;;24.63;32.61;102343.84;4971207;28;20113;-79
2022/05/09 11:45:07;;;;;;;10.05;4.40;;;;;;;24.85;32.09;102332.38;4988003;28;20121;-79
2022/05/09 11:47:57;;;;;;;8.02;4.30;;;;;;;24.80;32.31;102333.88;4988392;28;20667;-79
2022/05/09 11:50:27;;;;;;;12.98;5.35;;;;;;;24.60;31.99;102328.03;4987071;28;20034;-79
2022/05/09 11:52:57;;;;;;;12.70;4.72;;;;;;;24.87;33.21;102324.97;4988124;28;20030;-79